HDAM/JIB METAR and TAF weather

Enter ICAO airport designator
Station Type Date Time Source
HDAM METAR 2018/07/21 03:00 UTC NOAA

HDAM 210300Z 25007KT 6000 HZ FEW133 35/21 Q1006


Station Type Date Time Source
HDAM Decoded METAR 2018/07/21 03:00 UTC NOAA

Djibouti \ Ambouli, Djibouti (HDAM) 11-33N 043-10E
Jul 20, 2018 - 11:00 PM EDT / 2018.07.21 0300 UTC
Wind: from the WSW (250 degrees) at 8 MPH (7 KT):0
Visibility: 3 mile(s):0
Sky conditions: mostly clear
Weather: haze
Temperature: 95 F (35 C)
Heat index: 101.3 F (38.5 C):1
Dew Point: 69 F (21 C)
Relative Humidity: 44%
Pressure (altimeter): 29.71 in. Hg (1006 hPa)
ob: HDAM 210300Z 25007KT 6000 HZ FEW133 35/21 Q1006
cycle: 3

Station Type Date Time Source
HDAM TAF 2018/07/20 18:18 UTC NOAA

TAF TAF HDAM 201700Z 2018/2118 VRB05KT 8000 HZ NSC
BECMG 2100/2106 25010G20KT 6000 HZ SCT150
BECMG 2106/2112 28010KT 6000 BLDU SCT150


Example: see airport list